Time;durP1;ratioP1;P1;durP2;ratioP2;P2;SDS_P1;SDS_P2;PMS_P1;PMS_P2;Temp;Humidity;BMP_temperature;BMP_pressure;BME280_temperature;BME280_humidity;BME280_pressure;Samples;Min_cycle;Max_cycle;Signal;HPM_P1;HPM_P2
2023/03/17 00:01:50;;;;;;;;;20.00;15.33;;;;;15.31;83.23;99928.25;4857383;29;47045;-84
2023/03/17 00:05:02;;;;;;;;;15.33;15.00;;;;;15.59;83.49;99938.44;4858451;29;44797;-85
2023/03/17 00:07:29;;;;;;;;;17.67;14.67;;;;;15.31;84.15;99928.25;4878251;29;45432;-84
2023/03/17 00:09:54;;;;;;;;;17.00;12.00;;;;;15.30;85.09;99930.94;4860912;29;45405;-85
2023/03/17 00:12:20;;;;;;;;;16.33;16.33;;;;;15.32;85.98;99939.84;4877111;29;46109;-84
2023/03/17 00:14:46;;;;;;;;;13.00;13.00;;;;;15.31;86.75;99949.69;4878007;29;45266;-84
2023/03/17 00:17:14;;;;;;;;;17.33;15.33;;;;;15.47;87.00;99949.38;4877010;29;44905;-85
2023/03/17 00:19:41;;;;;;;;;15.33;15.33;;;;;15.37;86.06;99952.25;4860749;29;45177;-84
2023/03/17 00:22:16;;;;;;;;;16.00;13.00;;;;;15.42;86.27;99952.16;4859674;29;46772;-83
2023/03/17 00:24:42;;;;;;;;;13.33;12.00;;;;;15.22;87.23;99955.19;4877772;29;45778;-83
2023/03/17 00:27:11;;;;;;;;;14.00;14.00;;;;;15.28;87.00;99954.22;4861469;29;44758;-83
2023/03/17 00:29:37;;;;;;;;;14.67;13.00;;;;;15.13;87.77;99950.00;4862486;29;45351;-84
2023/03/17 00:32:03;;;;;;;;;18.33;14.33;;;;;15.15;86.88;99945.50;4877597;29;45338;-84
2023/03/17 00:34:29;;;;;;;;;13.67;13.67;;;;;15.07;86.50;99942.06;4861169;29;45413;-84
2023/03/17 00:36:55;;;;;;;;;15.33;14.67;;;;;15.06;86.91;99948.34;4842465;29;45358;-84
2023/03/17 00:39:20;;;;;;;;;15.00;15.00;;;;;15.03;87.58;99957.31;4861352;29;45322;-83
2023/03/17 00:41:45;;;;;;;;;18.67;15.00;;;;;14.99;88.07;99959.16;4844465;29;47361;-84
2023/03/17 00:44:11;;;;;;;;;14.67;14.67;;;;;14.96;88.01;99963.66;4843241;29;45289;-84
2023/03/17 00:46:38;;;;;;;;;14.00;14.00;;;;;14.85;88.47;99945.09;4859138;29;45444;-83
2023/03/17 00:49:21;;;;;;;;;14.67;14.67;;;;;15.04;88.30;99958.19;4842983;29;45354;-84
2023/03/17 00:51:48;;;;;;;;;14.33;14.33;;;;;14.83;88.82;99944.25;4842584;29;48559;-84
2023/03/17 00:54:15;;;;;;;;;15.67;13.67;;;;;14.80;89.21;99945.19;4842407;29;45520;-84
2023/03/17 00:56:42;;;;;;;;;12.00;12.00;;;;;14.81;89.14;99951.41;4844625;29;45470;-84
2023/03/17 00:59:29;;;;;;;;;15.67;15.00;;;;;15.05;88.24;99951.91;4842637;29;45878;-84
2023/03/17 01:01:55;;;;;;;;;16.00;14.33;;;;;14.77;89.13;99937.19;4842366;29;47304;-84
2023/03/17 01:04:21;;;;;;;;;17.00;17.00;;;;;14.76;89.18;99940.75;4859230;29;45310;-83
2023/03/17 01:06:49;;;;;;;;;15.33;12.00;;;;;14.87;89.11;99943.28;4844743;29;45487;-84
2023/03/17 01:09:17;;;;;;;;;16.67;16.67;;;;;14.83;89.92;99941.56;4860354;29;45530;-84
2023/03/17 01:11:43;;;;;;;;;14.33;14.33;;;;;14.72;91.36;99948.88;4842007;29;47636;-84
2023/03/17 01:14:11;;;;;;;;;19.67;19.00;;;;;14.82;90.63;99950.50;4841885;29;45673;-84
2023/03/17 01:16:37;;;;;;;;;13.67;13.67;;;;;14.72;91.11;99956.91;4842932;29;45324;-84
2023/03/17 01:19:04;;;;;;;;;16.33;16.33;;;;;14.79;91.38;99955.91;4858915;29;44847;-84
2023/03/17 01:21:30;;;;;;;;;16.33;14.67;;;;;14.71;91.51;99950.69;4826985;29;47268;-84
2023/03/17 01:23:56;;;;;;;;;12.00;12.00;;;;;14.70;91.42;99950.69;4839320;29;45434;-84
2023/03/17 01:26:22;;;;;;;;;18.33;17.33;;;;;14.70;92.02;99954.25;4841557;29;44932;-85
2023/03/17 01:28:47;;;;;;;;;15.67;15.67;;;;;14.68;91.24;99944.47;4856751;29;45804;-84
2023/03/17 01:31:13;;;;;;;;;17.00;13.67;;;;;14.72;91.46;99954.22;4855300;29;47064;-84
2023/03/17 01:33:40;;;;;;;;;18.67;13.67;;;;;14.79;91.59;99938.06;4857488;29;45741;-85
2023/03/17 01:36:06;;;;;;;;;16.00;16.00;;;;;14.67;91.79;99950.75;4857275;29;45428;-85
2023/03/17 01:38:31;;;;;;;;;14.33;14.33;;;;;14.64;92.04;99945.44;4842277;29;44936;-84
2023/03/17 01:40:57;;;;;;;;;18.00;18.00;;;;;14.64;92.39;99940.09;4856821;29;47113;-85
2023/03/17 01:43:26;;;;;;;;;17.00;13.00;;;;;14.73;92.75;99948.00;4868687;29;45590;-84
2023/03/17 01:46:12;;;;;;;;;15.00;15.00;;;;;14.86;92.12;99936.16;4875959;29;45486;-84
2023/03/17 01:49:17;;;;;;;;;15.00;15.00;;;;;14.81;93.02;99938.03;4874174;29;44829;-84
2023/03/17 01:52:08;;;;;;;;;14.67;13.00;;;;;14.73;92.55;99935.47;4871898;29;45648;-85
2023/03/17 01:54:34;;;;;;;;;13.00;12.67;;;;;14.56;93.40;99943.78;4874597;29;45483;-85
2023/03/17 01:57:09;;;;;;;;;12.67;12.67;;;;;14.70;93.83;99927.47;4858464;29;45538;-84
2023/03/17 01:59:42;;;;;;;;;12.33;12.00;;;;;14.70;93.92;99929.28;4858107;29;45539;-84
2023/03/17 02:02:11;;;;;;;;;14.33;12.33;;;;;14.73;94.89;99935.47;4857202;29;47132;-84
2023/03/17 02:04:38;;;;;;;;;17.33;13.00;;;;;14.61;94.65;99930.31;4874886;29;45267;-84
2023/03/17 02:07:11;;;;;;;;;16.33;15.00;;;;;14.82;92.99;99923.72;4874961;29;45423;-84
2023/03/17 02:09:37;;;;;;;;;16.33;16.33;;;;;14.67;95.17;99926.66;4859216;29;45578;-84
2023/03/17 02:12:02;;;;;;;;;15.67;13.33;;;;;14.68;94.68;99923.06;4858474;29;47251;-84
2023/03/17 02:14:28;;;;;;;;;12.67;12.33;;;;;14.70;93.87;99924.81;4858307;29;45421;-84
2023/03/17 02:16:54;;;;;;;;;12.00;12.00;;;;;14.65;94.45;99932.03;4875297;29;45441;-84
2023/03/17 02:19:19;;;;;;;;;12.00;11.33;;;;;14.67;93.46;99940.94;4858143;29;45358;-84
2023/03/17 02:21:55;;;;;;;;;12.33;11.00;;;;;14.80;94.01;99936.25;4874980;29;45373;-83
2023/03/17 02:24:36;;;;;;;;;16.67;15.67;;;;;14.78;93.82;99938.06;4875468;29;45460;-83
2023/03/17 02:27:10;;;;;;;;;17.33;16.33;;;;;14.69;95.88;99924.84;4858195;29;45432;-83
2023/03/17 02:29:36;;;;;;;;;13.67;13.00;;;;;14.57;94.83;99929.47;4858373;29;45462;-84
2023/03/17 02:32:04;;;;;;;;;15.67;15.67;;;;;14.62;94.56;99931.19;4858345;29;45809;-84
2023/03/17 02:34:33;;;;;;;;;17.00;14.33;;;;;14.54;94.52;99923.25;4858186;29;45449;-84
2023/03/17 02:36:58;;;;;;;;;10.67;10.33;;;;;14.46;95.19;99906.44;4859501;29;45401;-84
2023/03/17 02:39:24;;;;;;;;;12.33;12.00;;;;;14.57;95.09;99924.13;4867595;29;45467;-84
2023/03/17 02:41:51;;;;;;;;;11.67;11.33;;;;;14.55;94.87;99925.03;4840770;29;46922;-84
2023/03/17 02:44:16;;;;;;;;;16.00;13.00;;;;;14.48;95.51;99918.91;4840159;29;45390;-84
2023/03/17 02:46:42;;;;;;;;;15.00;13.33;;;;;14.56;96.15;99925.06;4839736;29;44984;-84
2023/03/17 02:49:08;;;;;;;;;17.33;14.67;;;;;14.53;95.99;99906.31;4839428;29;45417;-84
2023/03/17 02:51:34;;;;;;;;;11.33;10.33;;;;;14.53;96.36;99919.69;4839547;29;46905;-85
2023/03/17 02:53:59;;;;;;;;;12.00;12.00;;;;;14.57;96.79;99916.09;4856714;29;45463;-85
2023/03/17 02:56:25;;;;;;;;;15.33;12.67;;;;;14.60;97.33;99902.69;4856389;29;45379;-84
2023/03/17 02:58:51;;;;;;;;;11.33;11.00;;;;;14.68;97.18;99898.97;4856188;29;45407;-85
2023/03/17 03:01:17;;;;;;;;;11.67;11.67;;;;;14.76;96.82;99899.75;4856564;29;45566;-85
2023/03/17 03:03:43;;;;;;;;;10.33;9.33;;;;;14.78;96.14;99895.25;4839234;29;45396;-84
2023/03/17 03:06:09;;;;;;;;;9.33;9.33;;;;;14.79;95.35;99891.69;4839980;29;45408;-84
2023/03/17 03:08:35;;;;;;;;;11.67;11.67;;;;;14.82;95.47;99885.38;4839948;29;45454;-84
2023/03/17 03:11:01;;;;;;;;;12.33;10.67;;;;;14.83;95.07;99882.69;4839786;29;46896;-84
2023/03/17 03:13:27;;;;;;;;;12.67;11.33;;;;;14.83;93.84;99871.97;4856177;29;45425;-84
2023/03/17 03:15:54;;;;;;;;;12.67;10.67;;;;;14.90;95.58;99872.75;4840814;29;45417;-85
2023/03/17 03:18:19;;;;;;;;;12.67;11.67;;;;;14.78;96.01;99873.84;4839261;29;45411;-84
2023/03/17 03:20:45;;;;;;;;;12.33;11.00;;;;;14.80;94.74;99869.34;4839955;29;47872;-84
2023/03/17 03:23:11;;;;;;;;;13.00;12.00;;;;;14.73;96.01;99875.72;4856740;29;45442;-84
2023/03/17 03:25:37;;;;;;;;;12.67;12.67;;;;;14.81;96.43;99889.84;4856669;29;44831;-85
2023/03/17 03:28:05;;;;;;;;;12.67;12.00;;;;;14.91;96.33;99890.59;4840124;29;45369;-85
2023/03/17 03:30:32;;;;;;;;;9.67;9.33;;;;;14.84;94.99;99881.75;4854733;29;45595;-84
2023/03/17 03:32:58;;;;;;;;;11.33;11.33;;;;;14.80;94.42;99885.41;4857612;29;44735;-84
2023/03/17 03:35:23;;;;;;;;;11.00;11.00;;;;;14.69;93.89;99880.22;4856251;29;45682;-84
2023/03/17 03:37:49;;;;;;;;;16.00;14.67;;;;;14.67;94.73;99878.50;4841435;29;45356;-84
2023/03/17 03:40:14;;;;;;;;;12.00;12.00;;;;;14.67;94.84;99875.81;4842739;29;47062;-85
2023/03/17 03:42:40;;;;;;;;;10.33;9.00;;;;;14.69;95.26;99895.41;4860131;29;45040;-85
2023/03/17 03:45:06;;;;;;;;;11.00;11.00;;;;;14.65;94.75;99899.94;4860942;29;45725;-85
2023/03/17 03:47:32;;;;;;;;;12.33;12.33;;;;;14.58;94.58;99896.47;4861736;29;45328;-84
2023/03/17 03:49:59;;;;;;;;;10.33;10.33;;;;;14.75;95.76;99898.88;4861419;29;46893;-85
2023/03/17 03:52:24;;;;;;;;;12.67;10.67;;;;;14.61;95.42;99895.53;4860414;29;45351;-84
2023/03/17 03:54:50;;;;;;;;;15.00;12.67;;;;;14.59;95.27;99906.25;4860312;29;45287;-84
2023/03/17 03:57:15;;;;;;;;;14.00;12.00;;;;;14.63;94.80;99903.53;4861193;29;45275;-84
2023/03/17 03:59:41;;;;;;;;;10.00;10.00;;;;;14.58;95.22;99907.19;4861021;29;47720;-85
2023/03/17 04:02:06;;;;;;;;;12.00;12.00;;;;;14.54;94.92;99908.09;4861236;29;45359;-84
2023/03/17 04:04:33;;;;;;;;;12.00;12.00;;;;;14.56;95.22;99908.09;4879087;29;44811;-84
2023/03/17 04:06:58;;;;;;;;;13.00;11.67;;;;;14.54;94.85;99917.91;4862829;29;45359;-84
2023/03/17 04:09:24;;;;;;;;;12.00;12.00;;;;;14.46;95.17;99910.00;4860863;29;47850;-84
2023/03/17 04:11:50;;;;;;;;;14.67;14.67;;;;;14.45;95.52;99913.56;4860582;29;45413;-84
2023/03/17 04:14:17;;;;;;;;;15.33;12.00;;;;;14.41;96.27;99928.78;4876611;29;45868;-85
2023/03/17 04:16:43;;;;;;;;;15.00;15.00;;;;;14.35;95.37;99923.53;4860174;29;45395;-85
2023/03/17 04:19:09;;;;;;;;;10.67;10.00;;;;;14.39;95.43;99925.25;4860697;29;46578;-84
2023/03/17 04:21:35;;;;;;;;;12.00;11.00;;;;;14.32;94.76;99914.66;4862511;29;45367;-84
2023/03/17 04:27:24;;;;;;;;;11.33;11.00;;;;;14.35;96.32;99920.84;4879072;29;44896;-84
2023/03/17 04:29:50;;;;;;;;;10.00;10.00;;;;;14.27;95.88;99903.16;4877378;29;45121;-84
2023/03/17 04:32:15;;;;;;;;;16.00;11.67;;;;;14.33;95.77;99911.09;4868997;29;45493;-84
2023/03/17 04:34:41;;;;;;;;;12.33;10.67;;;;;14.30;95.61;99903.09;4858796;29;45537;-84
2023/03/17 04:37:08;;;;;;;;;12.33;11.33;;;;;14.37;97.66;99910.13;4843248;29;45472;-84
2023/03/17 04:39:34;;;;;;;;;16.00;15.00;;;;;14.28;96.36;99899.56;4843241;29;47293;-85
2023/03/17 04:42:02;;;;;;;;;14.33;13.00;;;;;14.28;97.69;99891.53;4859378;29;45460;-85
2023/03/17 04:44:27;;;;;;;;;11.33;11.33;;;;;14.34;96.23;99902.13;4842929;29;45481;-85
2023/03/17 04:46:53;;;;;;;;;13.67;11.00;;;;;14.33;95.97;99887.91;4842361;29;45341;-84
2023/03/17 04:49:18;;;;;;;;;12.00;11.00;;;;;14.35;96.57;99896.78;4842918;29;46966;-84
2023/03/17 04:51:44;;;;;;;;;9.33;9.33;;;;;14.37;96.61;99900.31;4843707;29;46011;-85
2023/03/17 04:54:10;;;;;;;;;13.67;13.67;;;;;14.46;96.88;99907.34;4844426;29;45452;-84
2023/03/17 04:56:35;;;;;;;;;11.00;11.00;;;;;14.30;96.72;99881.69;4860120;29;45262;-84
2023/03/17 04:59:04;;;;;;;;;10.00;10.00;;;;;14.52;95.39;99887.59;4859338;29;45358;-84
2023/03/17 05:01:30;;;;;;;;;10.67;10.67;;;;;14.39;96.96;99905.66;4859419;29;45384;-84
2023/03/17 05:03:56;;;;;;;;;12.67;10.33;;;;;14.43;96.82;99911.84;4843079;29;45305;-84
2023/03/17 05:06:23;;;;;;;;;12.00;12.00;;;;;14.45;97.31;99908.22;4843572;29;45467;-84
2023/03/17 05:08:54;;;;;;;;;11.00;11.00;;;;;14.32;95.89;99883.47;4841374;29;47187;-84
2023/03/17 05:11:23;;;;;;;;;12.67;11.00;;;;;14.56;96.29;99894.72;4858807;29;45465;-84
2023/03/17 05:13:48;;;;;;;;;12.33;12.33;;;;;14.35;95.01;99907.47;4842284;29;45910;-84
2023/03/17 05:19:36;;;;;;;;;10.00;10.00;;;;;14.39;95.10;99905.66;4859330;29;45681;-85
2023/03/17 05:22:02;;;;;;;;;14.67;13.00;;;;;14.11;96.40;99875.75;4843162;29;45624;-85
2023/03/17 05:24:28;;;;;;;;;11.00;10.67;;;;;14.07;98.01;99874.91;4842610;29;44895;-84
2023/03/17 05:26:54;;;;;;;;;10.00;10.00;;;;;14.33;97.79;99920.00;4857810;29;45677;-83
2023/03/17 05:29:19;;;;;;;;;15.00;11.00;;;;;14.06;97.17;99874.91;4841199;29;46892;-84
2023/03/17 05:31:46;;;;;;;;;17.00;11.00;;;;;14.08;98.68;99876.69;4857145;29;45458;-85
2023/03/17 05:34:12;;;;;;;;;11.67;10.33;;;;;14.21;98.08;99905.00;4856643;29;45503;-84
2023/03/17 05:36:37;;;;;;;;;9.67;9.00;;;;;14.12;97.87;99891.78;4858202;29;45437;-84
2023/03/17 05:39:09;;;;;;;;;11.33;10.00;;;;;14.30;98.15;99893.31;4841989;29;46814;-84
2023/03/17 05:41:35;;;;;;;;;10.00;10.00;;;;;14.17;99.93;99905.94;4841059;29;45497;-83
2023/03/17 05:44:00;;;;;;;;;12.67;11.00;;;;;14.18;99.33;99902.38;4841461;29;44893;-85
2023/03/17 05:46:27;;;;;;;;;14.00;12.00;;;;;14.20;100.00;99881.84;4842649;29;45337;-85
2023/03/17 05:48:52;;;;;;;;;9.00;9.00;;;;;14.16;98.59;99908.66;4865904;29;47090;-85
2023/03/17 05:51:19;;;;;;;;;9.67;9.33;;;;;14.16;98.98;99904.19;4876358;29;45431;-84
2023/03/17 05:53:44;;;;;;;;;11.00;9.67;;;;;14.19;100.00;99916.63;4861870;29;44846;-84
2023/03/17 05:56:26;;;;;;;;;9.33;9.33;;;;;14.31;98.97;99910.22;4875712;29;45959;-84
2023/03/17 05:58:51;;;;;;;;;11.67;11.33;;;;;14.18;99.80;99921.09;4858423;29;45286;-84
2023/03/17 06:01:17;;;;;;;;;8.33;8.33;;;;;14.16;99.50;99909.53;4876217;29;45432;-84
2023/03/17 06:03:42;;;;;;;;;11.00;9.33;;;;;14.18;99.36;99920.22;4877354;29;45342;-84
2023/03/17 06:06:08;;;;;;;;;11.67;9.67;;;;;14.16;100.00;99909.53;4861652;29;45508;-84
2023/03/17 06:08:33;;;;;;;;;11.00;11.00;;;;;14.16;100.00;99912.22;4859554;29;47198;-84
2023/03/17 06:10:59;;;;;;;;;11.00;10.67;;;;;14.15;100.00;99907.75;4876014;29;45299;-84
2023/03/17 06:13:25;;;;;;;;;11.00;10.00;;;;;14.11;99.87;99907.84;4860607;29;45497;-84
2023/03/17 06:15:51;;;;;;;;;10.33;9.33;;;;;14.09;100.00;99910.53;4859309;29;45341;-84
2023/03/17 06:18:18;;;;;;;;;9.67;9.67;;;;;14.04;100.00;99893.69;4858513;29;47286;-84
2023/03/17 06:20:44;;;;;;;;;10.67;10.00;;;;;14.12;100.00;99896.25;4857696;29;45397;-84
2023/03/17 06:23:10;;;;;;;;;9.33;6.33;;;;;14.14;100.00;99911.34;4857559;29;45451;-84
2023/03/17 06:25:38;;;;;;;;;12.00;10.00;;;;;14.15;100.00;99918.47;4876525;29;45381;-84
2023/03/17 06:28:04;;;;;;;;;11.67;9.00;;;;;14.20;100.00;99913.06;4878788;29;45445;-84
2023/03/17 06:30:32;;;;;;;;;13.00;12.00;;;;;14.29;100.00;99915.59;4878908;29;45280;-84
2023/03/17 06:32:58;;;;;;;;;11.67;7.33;;;;;14.13;100.00;99906.03;4874831;29;45233;-83
2023/03/17 06:35:31;;;;;;;;;10.00;10.00;;;;;14.23;100.00;99893.41;4841093;29;45484;-84
2023/03/17 06:37:56;;;;;;;;;9.00;8.00;;;;;14.21;100.00;99910.34;4859067;29;45226;-85
2023/03/17 06:40:23;;;;;;;;;8.33;8.00;;;;;14.38;100.00;99911.88;4841161;29;45373;-85
2023/03/17 06:42:50;;;;;;;;;9.00;9.00;;;;;14.32;100.00;99904.88;4842268;29;45548;-85
2023/03/17 06:45:17;;;;;;;;;11.33;11.33;;;;;14.29;100.00;99894.19;4958343;23;46427;-84
2023/03/17 06:47:42;;;;;;;;;7.33;7.33;;;;;14.19;100.00;99890.75;4855671;29;47032;-83
2023/03/17 06:50:11;;;;;;;;;9.67;9.67;;;;;14.39;100.00;99903.84;4856039;29;45477;-84
2023/03/17 06:52:38;;;;;;;;;11.00;11.00;;;;;14.40;100.00;99920.78;4857997;29;45551;-85
2023/03/17 06:55:07;;;;;;;;;8.67;8.67;;;;;14.25;99.91;99907.66;4857816;29;45329;-85
2023/03/17 06:57:36;;;;;;;;;6.00;5.00;;;;;14.47;99.66;99925.13;4873782;29;47649;-83
2023/03/17 07:00:05;;;;;;;;;8.67;8.67;;;;;14.43;98.54;99915.41;4870589;29;45367;-85
2023/03/17 07:02:33;;;;;;;;;10.67;10.67;;;;;14.55;98.90;99936.63;4871823;29;44949;-85
2023/03/17 07:05:01;;;;;;;;;11.00;11.00;;;;;14.44;98.96;99922.53;4855610;29;45629;-82
2023/03/17 07:07:28;;;;;;;;;9.67;8.33;;;;;14.44;100.00;99916.28;4856490;29;46048;-83
2023/03/17 07:09:54;;;;;;;;;10.00;10.00;;;;;14.57;100.00;99929.47;4856448;29;45577;-84
2023/03/17 07:12:20;;;;;;;;;12.67;10.67;;;;;14.57;98.04;99908.06;4855468;29;45334;-84
2023/03/17 07:18:08;;;;;;;;;10.33;8.00;;;;;14.67;97.96;99908.81;4855804;29;45424;-84
2023/03/17 07:20:40;;;;;;;;;12.00;10.33;;;;;14.75;97.62;99916.72;4857449;29;45448;-84
2023/03/17 07:23:06;;;;;;;;;7.33;7.33;;;;;14.83;97.09;99924.63;4871552;29;45326;-85
2023/03/17 07:25:32;;;;;;;;;8.33;8.33;;;;;14.86;97.25;99938.84;4872471;29;45411;-83
2023/03/17 07:27:57;;;;;;;;;10.33;10.33;;;;;14.90;96.69;99935.19;4860012;29;47609;-85
2023/03/17 07:30:22;;;;;;;;;3.33;3.33;;;;;14.95;96.48;99946.72;4890265;29;45725;-85
2023/03/17 07:32:48;;;;;;;;;9.00;9.00;;;;;15.00;96.75;99952.88;4879741;29;45240;-86
2023/03/17 07:35:14;;;;;;;;;10.00;9.00;;;;;15.04;95.58;99950.16;4911324;28;45517;-85
2023/03/17 07:37:47;;;;;;;;;10.33;10.33;;;;;15.09;94.78;99942.91;4886754;29;45308;-84
2023/03/17 07:40:22;;;;;;;;;12.33;9.33;;;;;15.40;95.84;99948.63;4877279;29;45484;-85
2023/03/17 07:42:48;;;;;;;;;10.33;9.33;;;;;15.26;95.44;99945.31;4876795;29;45323;-86
2023/03/17 07:45:14;;;;;;;;;11.00;10.00;;;;;15.36;96.11;99946.91;4882777;29;45634;-84
2023/03/17 07:47:59;;;;;;;;;11.67;10.00;;;;;15.16;93.83;99912.44;4880459;29;48071;-86
2023/03/17 07:50:27;;;;;;;;;11.00;11.00;;;;;15.35;94.21;99929.97;4879282;29;45986;-84
2023/03/17 07:52:53;;;;;;;;;12.67;10.33;;;;;15.37;92.98;99937.94;4895920;29;45347;-86
2023/03/17 07:59:30;;;;;;;;;10.33;10.00;;;;;15.69;92.46;99953.41;4880164;29;45441;-85
2023/03/17 08:01:57;;;;;;;;;11.33;9.33;;;;;15.49;93.15;99963.63;4880128;29;45702;-87
2023/03/17 08:04:37;;;;;;;;;8.00;8.00;;;;;15.40;91.78;99935.22;4889231;29;45477;-84
2023/03/17 08:07:05;;;;;;;;;11.00;9.33;;;;;15.47;93.84;99968.13;4898580;29;45414;-86
2023/03/17 08:09:36;;;;;;;;;10.00;9.00;;;;;15.61;93.67;99966.09;4897032;29;47295;-86
2023/03/17 08:12:03;;;;;;;;;7.33;7.33;;;;;15.49;92.48;99950.22;4880772;29;44788;-86
2023/03/17 08:17:39;;;;;;;;;9.33;9.33;;;;;15.58;91.51;99942.03;4877777;29;44927;-86
2023/03/17 08:20:28;;;;;;;;;10.00;10.00;;;;;15.90;90.83;99964.69;4860532;29;45126;-87
2023/03/17 08:23:00;;;;;;;;;2.67;2.00;;;;;15.93;91.30;99959.25;4853071;29;45468;-85
2023/03/17 08:25:49;;;;;;;;;10.00;8.33;;;;;16.02;89.80;99963.53;4875344;29;44829;-86
2023/03/17 08:30:50;;;;;;;;;9.00;9.00;;;;;15.87;88.41;99938.78;4895738;29;45356;-83
2023/03/17 08:33:19;;;;;;;;;7.33;6.00;;;;;16.00;87.44;99950.16;4882844;29;45412;-86
2023/03/17 08:35:47;;;;;;;;;10.67;9.00;;;;;16.03;89.16;99934.00;4881802;29;45404;-85
2023/03/17 08:38:19;;;;;;;;;8.00;8.00;;;;;16.40;88.59;99962.69;4899615;29;44825;-85
2023/03/17 08:40:45;;;;;;;;;10.33;10.00;;;;;16.19;89.52;99943.47;4893080;29;45420;-85
2023/03/17 08:43:20;;;;;;;;;9.00;9.00;;;;;16.46;88.88;99949.16;4887053;29;45505;-85
2023/03/17 08:46:35;;;;;;;;;10.00;10.00;;;;;16.63;87.97;99915.69;4867234;29;45452;-85
2023/03/17 08:49:04;;;;;;;;;9.33;6.67;;;;;16.68;86.26;99928.03;4868775;29;44847;-85
2023/03/17 08:51:55;;;;;;;;;6.33;6.33;;;;;16.77;83.98;99900.97;4898606;29;45838;-86
2023/03/17 08:57:37;;;;;;;;;7.67;6.00;;;;;17.12;83.98;99912.66;4842836;29;44903;-85
2023/03/17 09:00:35;;;;;;;;;7.00;7.00;;;;;17.21;84.59;99908.88;5405253;23;45265;-84
2023/03/17 09:04:07;;;;;;;;;10.00;7.00;;;;;17.73;86.44;99941.50;4873373;29;47536;-84
2023/03/17 09:06:50;;;;;;;;;8.00;5.00;;;;;17.97;83.55;99939.94;4896644;28;45426;-85
2023/03/17 09:09:32;;;;;;;;;;;;;;;;;;;;;
2023/03/17 09:13:03;;;;;;;;;;;;;;;;;;;;;
2023/03/17 09:21:54;;;;;;;;;7.67;5.00;;;;;19.09;78.64;99877.16;4860853;29;45746;-84
2023/03/17 09:24:43;;;;;;;;;4.67;4.33;;;;;19.41;79.16;99906.59;4852811;29;45389;-85
2023/03/17 09:39:10;;;;;;;;;;;;;;;;;;;;;
2023/03/17 09:49:17;;;;;;;;;;;;;;;;;;;;;
2023/03/17 09:51:45;;;;;;;;;6.33;5.33;;;;;19.84;64.89;99884.38;4871728;29;75186;-84
2023/03/17 09:57:57;;;;;;;;;5.00;3.00;;;;;20.22;71.02;99867.59;4818422;29;45513;-85
2023/03/17 10:01:08;;;;;;;;;;;;;;;;;;;;;
2023/03/17 10:08:43;;;;;;;;;2.00;2.00;;;;;20.92;60.44;99910.69;4874614;29;45397;-85
2023/03/17 10:14:50;;;;;;;;;4.00;3.00;;;;;21.04;62.42;99909.28;4824527;29;44804;-85
2023/03/17 10:17:27;;;;;;;;;1.00;1.00;;;;;20.84;59.65;99884.94;4819933;29;45263;-84
2023/03/17 10:20:26;;;;;;;;;4.00;3.00;;;;;21.06;62.96;99911.94;4820599;29;45490;-85
2023/03/17 10:23:24;;;;;;;;;3.33;3.33;;;;;21.24;61.45;99924.66;4822814;29;45313;-86
2023/03/17 10:26:41;;;;;;;;;;;;;;;;;;;;;
2023/03/17 10:29:56;;;;;;;;;2.00;2.00;;;;;21.21;62.58;99915.81;4760003;29;74366;-86
2023/03/17 10:36:47;;;;;;;;;;;;;;;;;;;;;
2023/03/17 10:53:51;;;;;;;;;2.00;2.00;;;;;21.13;55.00;99883.72;4841650;29;45703;-84
2023/03/17 10:57:14;;;;;;;;;;;;;;;;;;;;;
2023/03/17 11:00:18;;;;;;;;;2.00;2.00;;;;;21.18;62.19;99903.31;4782095;29;71635;-85
2023/03/17 11:03:44;;;;;;;;;;;;;;;;;;;;;
2023/03/17 11:06:52;;;;;;;;;3.00;3.00;;;;;21.29;59.18;99947.00;4782602;29;65222;-85
2023/03/17 11:09:49;;;;;;;;;2.00;2.00;;;;;21.32;52.91;99938.75;4785093;29;45284;-86
2023/03/17 11:13:58;;;;;;;;;4.50;3.00;;;;;21.24;58.17;99927.38;4711602;30;45581;-83
2023/03/17 11:23:10;;;;;;;;;6.33;4.00;;;;;21.28;56.44;99915.47;4660336;30;45515;-85
2023/03/17 11:26:31;;;;;;;;;3.33;2.33;;;;;21.14;54.53;99918.78;4647108;30;45632;-86
2023/03/17 11:35:48;;;;;;;;;2.00;2.00;;;;;21.30;60.13;99919.00;4640057;30;45449;-84
2023/03/17 11:39:03;;;;;;;;;1.25;1.25;;;;;21.23;55.91;99914.81;4685008;30;45440;-86
2023/03/17 11:41:53;;;;;;;;;6.00;4.33;;;;;21.07;60.82;99900.19;4688581;30;44830;-85
2023/03/17 11:45:01;;;;;;;;;12.00;9.33;;;;;21.50;61.76;99914.56;4680054;30;45394;-86
2023/03/17 11:59:00;;;;;;;;;10.33;8.67;;;;;22.44;65.30;99918.41;4828720;29;45416;-77
2023/03/17 12:02:03;;;;;;;;;;;;;;;;;;;;;
2023/03/17 12:04:52;;;;;;;;;6.50;5.00;;;;;22.70;64.97;99887.31;4842954;29;44851;-79
2023/03/17 12:07:21;;;;;;;;;9.67;8.00;;;;;22.90;63.90;99929.69;4833230;29;45532;-80
2023/03/17 12:09:57;;;;;;;;;6.67;6.67;;;;;22.65;62.90;99935.47;4818403;29;45412;-79
2023/03/17 12:12:39;;;;;;;;;9.00;7.67;;;;;22.38;61.21;99935.84;4816083;29;45176;-78
2023/03/17 12:15:21;;;;;;;;;9.67;8.33;;;;;22.07;62.63;99931.81;4834947;29;45446;-79
2023/03/17 12:18:15;;;;;;;;;10.67;7.67;;;;;21.90;59.86;99945.28;4839515;29;45414;-78
2023/03/17 12:24:28;;;;;;;;;4.75;4.75;;;;;21.65;61.42;99946.34;4853326;29;45485;-79
2023/03/17 12:26:54;;;;;;;;;4.00;3.00;;;;;21.23;66.00;99955.38;4834267;29;44797;-77
2023/03/17 12:29:46;;;;;;;;;4.67;4.00;;;;;21.32;67.37;99938.75;4837328;29;45681;-77
2023/03/17 12:32:54;;;;;;;;;30.67;29.00;;;;;21.40;73.91;99924.00;4820698;29;45715;-78
2023/03/17 12:35:30;;;;;;;;;3.00;3.00;;;;;21.52;67.96;99910.84;4795887;29;46902;-79
2023/03/17 12:38:03;;;;;;;;;3.00;3.00;;;;;21.49;68.85;99918.22;4797504;29;45750;-78
2023/03/17 12:40:56;;;;;;;;;8.67;8.00;;;;;21.69;66.58;99930.88;4797375;29;45458;-79
2023/03/17 12:43:34;;;;;;;;;6.00;5.33;;;;;21.87;70.02;99930.03;4758498;29;45756;-77
2023/03/17 12:46:40;;;;;;;;;14.67;13.67;;;;;22.02;69.56;99933.00;4759591;29;46171;-78
2023/03/17 12:49:09;;;;;;;;;6.67;5.67;;;;;21.78;67.55;99934.03;4770148;29;45572;-77
2023/03/17 12:52:09;;;;;;;;;5.00;5.00;;;;;21.92;65.13;99936.13;4743959;29;45472;-77
2023/03/17 12:54:46;;;;;;;;;5.00;5.00;;;;;21.71;63.88;99923.56;4739134;29;45470;-77
2023/03/17 12:57:45;;;;;;;;;6.50;5.00;;;;;21.64;65.42;99928.38;4755249;29;45718;-77
2023/03/17 13:00:27;;;;;;;;;4.50;2.50;;;;;21.58;67.01;99929.50;4755681;29;45488;-77
2023/03/17 13:03:26;;;;;;;;;7.50;6.00;;;;;21.42;67.24;99932.94;4752450;29;46069;-77
2023/03/17 13:05:58;;;;;;;;;7.33;5.67;;;;;21.10;67.67;99916.28;4754201;29;45515;-77
2023/03/17 13:08:30;;;;;;;;;10.00;9.00;;;;;21.10;72.13;99927.97;4769269;29;46259;-77
2023/03/17 13:11:18;;;;;;;;;6.67;6.00;;;;;21.18;71.80;99924.94;4794318;29;45587;-77
2023/03/17 13:13:57;;;;;;;;;3.67;3.67;;;;;21.14;72.79;99934.13;4810740;29;45826;-78
2023/03/17 13:16:33;;;;;;;;;5.33;5.33;;;;;21.10;74.00;99936.06;4809226;29;45808;-78
2023/03/17 13:19:17;;;;;;;;;6.67;6.67;;;;;21.23;72.88;99941.84;4804726;29;45559;-77
2023/03/17 13:21:59;;;;;;;;;14.33;14.33;;;;;21.17;73.44;99936.72;4847546;29;45544;-78
2023/03/17 13:25:11;;;;;;;;;7.00;7.00;;;;;21.13;73.02;99932.38;4829618;29;45629;-78
2023/03/17 13:27:42;;;;;;;;;13.00;10.33;;;;;21.05;71.21;99935.41;4831959;29;45638;-76
2023/03/17 13:30:27;;;;;;;;;7.00;7.00;;;;;21.14;75.49;99926.88;4831743;29;45546;-76
2023/03/17 13:33:08;;;;;;;;;4.00;4.00;;;;;21.21;73.39;99924.81;4832140;29;45557;-77
2023/03/17 13:35:44;;;;;;;;;9.00;8.00;;;;;21.28;76.31;99923.59;4846735;29;46773;-76
2023/03/17 13:38:28;;;;;;;;;41.00;36.33;;;;;21.46;72.17;99923.78;4845327;29;46075;-76
2023/03/17 13:44:37;;;;;;;;;19.00;15.00;;;;;21.71;76.32;99923.56;4842485;29;47157;-77
2023/03/17 13:47:35;;;;;;;;;8.25;8.25;;;;;21.76;70.67;99927.81;4823113;29;45620;-76
2023/03/17 13:50:32;;;;;;;;;7.00;6.00;;;;;21.66;70.19;99904.81;4846940;29;45462;-77
2023/03/17 13:53:06;;;;;;;;;8.33;8.33;;;;;21.53;70.36;99904.50;4845201;29;45905;-77
2023/03/17 14:02:41;;;;;;;;;11.00;7.00;;;;;21.15;75.21;99917.84;4857379;29;44736;-76
2023/03/17 14:05:20;;;;;;;;;4.00;4.00;;;;;21.14;76.13;99920.59;4828850;29;47369;-77